sensor_id;sensor_type;location;lat;lon;timestamp;temperature;humidity
13682;DHT22;6913;49.892;7.936;2023-02-28T00:00:26;-0.50;99.90
13682;DHT22;6913;49.892;7.936;2023-02-28T00:02:53;-0.40;99.90
13682;DHT22;6913;49.892;7.936;2023-02-28T00:05:21;-0.50;99.90
13682;DHT22;6913;49.892;7.936;2023-02-28T00:07:49;-0.40;99.90
13682;DHT22;6913;49.892;7.936;2023-02-28T00:10:18;-0.40;99.90
13682;DHT22;6913;49.892;7.936;2023-02-28T00:12:46;-0.30;99.90
13682;DHT22;6913;49.892;7.936;2023-02-28T00:15:15;-0.10;99.90
13682;DHT22;6913;49.892;7.936;2023-02-28T00:17:42;-0.30;99.90
13682;DHT22;6913;49.892;7.936;2023-02-28T00:20:11;0.70;99.90
13682;DHT22;6913;49.892;7.936;2023-02-28T00:22:39;-0.30;99.90
13682;DHT22;6913;49.892;7.936;2023-02-28T00:25:07;-0.40;99.90
13682;DHT22;6913;49.892;7.936;2023-02-28T00:27:36;-0.30;99.90
13682;DHT22;6913;49.892;7.936;2023-02-28T00:30:05;-0.30;99.90
13682;DHT22;6913;49.892;7.936;2023-02-28T00:32:35;-0.40;99.90
13682;DHT22;6913;49.892;7.936;2023-02-28T00:35:03;-0.50;99.90
13682;DHT22;6913;49.892;7.936;2023-02-28T00:37:30;-0.50;99.90
13682;DHT22;6913;49.892;7.936;2023-02-28T00:39:57;-0.60;99.90
13682;DHT22;6913;49.892;7.936;2023-02-28T00:42:24;-0.70;99.90
13682;DHT22;6913;49.892;7.936;2023-02-28T00:44:51;-0.70;99.90
13682;DHT22;6913;49.892;7.936;2023-02-28T00:47:18;-0.70;99.90
13682;DHT22;6913;49.892;7.936;2023-02-28T00:49:47;-0.70;99.90
13682;DHT22;6913;49.892;7.936;2023-02-28T00:52:14;-0.50;99.90
13682;DHT22;6913;49.892;7.936;2023-02-28T00:54:41;-0.60;99.90
13682;DHT22;6913;49.892;7.936;2023-02-28T00:57:08;-0.60;99.90
13682;DHT22;6913;49.892;7.936;2023-02-28T00:59:35;-0.60;99.90
13682;DHT22;6913;49.892;7.936;2023-02-28T01:02:02;-0.50;99.90
13682;DHT22;6913;49.892;7.936;2023-02-28T01:04:29;-0.50;99.90
13682;DHT22;6913;49.892;7.936;2023-02-28T01:06:57;-0.40;99.90
13682;DHT22;6913;49.892;7.936;2023-02-28T01:09:24;-0.40;99.90
13682;DHT22;6913;49.892;7.936;2023-02-28T01:11:51;-0.50;99.90
13682;DHT22;6913;49.892;7.936;2023-02-28T01:14:18;-0.60;99.90
13682;DHT22;6913;49.892;7.936;2023-02-28T01:16:45;-0.70;99.90
13682;DHT22;6913;49.892;7.936;2023-02-28T01:19:12;-0.70;99.90
13682;DHT22;6913;49.892;7.936;2023-02-28T01:21:39;-0.20;99.90
13682;DHT22;6913;49.892;7.936;2023-02-28T01:24:08;-0.70;99.90
13682;DHT22;6913;49.892;7.936;2023-02-28T01:26:35;-0.80;99.90
13682;DHT22;6913;49.892;7.936;2023-02-28T01:29:02;-0.80;99.90
13682;DHT22;6913;49.892;7.936;2023-02-28T01:31:29;-0.80;99.90
13682;DHT22;6913;49.892;7.936;2023-02-28T01:33:56;-0.80;99.90
13682;DHT22;6913;49.892;7.936;2023-02-28T01:36:24;-0.80;99.90
13682;DHT22;6913;49.892;7.936;2023-02-28T01:38:51;-0.80;99.90
13682;DHT22;6913;49.892;7.936;2023-02-28T01:41:22;-0.80;99.90
13682;DHT22;6913;49.892;7.936;2023-02-28T01:43:56;-0.70;99.90
13682;DHT22;6913;49.892;7.936;2023-02-28T01:46:23;-0.80;99.90
13682;DHT22;6913;49.892;7.936;2023-02-28T01:48:53;-0.80;99.90
13682;DHT22;6913;49.892;7.936;2023-02-28T01:51:23;-0.90;99.90
13682;DHT22;6913;49.892;7.936;2023-02-28T01:53:56;-0.90;99.90
13682;DHT22;6913;49.892;7.936;2023-02-28T01:56:27;-0.90;99.90
13682;DHT22;6913;49.892;7.936;2023-02-28T01:58:56;-1.00;99.90
13682;DHT22;6913;49.892;7.936;2023-02-28T02:01:25;-1.00;99.90
13682;DHT22;6913;49.892;7.936;2023-02-28T02:03:55;-1.10;99.90
13682;DHT22;6913;49.892;7.936;2023-02-28T02:06:23;0.00;99.90
13682;DHT22;6913;49.892;7.936;2023-02-28T02:08:51;-1.10;99.90
13682;DHT22;6913;49.892;7.936;2023-02-28T02:11:20;-1.10;99.90
13682;DHT22;6913;49.892;7.936;2023-02-28T02:14:10;-1.10;99.90
13682;DHT22;6913;49.892;7.936;2023-02-28T02:16:52;-1.20;99.90
13682;DHT22;6913;49.892;7.936;2023-02-28T02:25:28;-1.30;99.90
13682;DHT22;6913;49.892;7.936;2023-02-28T02:28:20;-1.30;99.90
13682;DHT22;6913;49.892;7.936;2023-02-28T02:34:42;-1.30;99.90
13682;DHT22;6913;49.892;7.936;2023-02-28T02:37:15;-1.20;99.90
13682;DHT22;6913;49.892;7.936;2023-02-28T02:39:51;-1.20;99.90
13682;DHT22;6913;49.892;7.936;2023-02-28T02:42:25;-1.10;99.90
13682;DHT22;6913;49.892;7.936;2023-02-28T02:44:59;-1.10;99.90
13682;DHT22;6913;49.892;7.936;2023-02-28T02:47:30;-1.10;99.90
13682;DHT22;6913;49.892;7.936;2023-02-28T02:50:02;-1.10;99.90
13682;DHT22;6913;49.892;7.936;2023-02-28T02:52:36;-1.10;99.90
13682;DHT22;6913;49.892;7.936;2023-02-28T02:55:06;-1.00;99.90
13682;DHT22;6913;49.892;7.936;2023-02-28T02:57:38;-1.00;99.90
13682;DHT22;6913;49.892;7.936;2023-02-28T03:00:09;-1.00;99.90
13682;DHT22;6913;49.892;7.936;2023-02-28T03:02:38;-1.00;99.90
13682;DHT22;6913;49.892;7.936;2023-02-28T03:05:14;-1.00;99.90
13682;DHT22;6913;49.892;7.936;2023-02-28T03:07:41;-0.90;99.90
13682;DHT22;6913;49.892;7.936;2023-02-28T03:10:27;-0.90;99.90
13682;DHT22;6913;49.892;7.936;2023-02-28T03:13:06;-0.90;99.90
13682;DHT22;6913;49.892;7.936;2023-02-28T03:15:47;-0.90;99.90
13682;DHT22;6913;49.892;7.936;2023-02-28T03:18:21;-0.90;99.90
13682;DHT22;6913;49.892;7.936;2023-02-28T03:20:58;-0.90;99.90
13682;DHT22;6913;49.892;7.936;2023-02-28T03:23:34;-0.90;99.90
13682;DHT22;6913;49.892;7.936;2023-02-28T03:26:07;-1.00;99.90
13682;DHT22;6913;49.892;7.936;2023-02-28T03:28:42;-1.00;99.90
13682;DHT22;6913;49.892;7.936;2023-02-28T03:31:16;-1.10;99.90
13682;DHT22;6913;49.892;7.936;2023-02-28T03:33:48;-1.10;99.90
13682;DHT22;6913;49.892;7.936;2023-02-28T03:36:24;-1.00;99.90
13682;DHT22;6913;49.892;7.936;2023-02-28T03:38:57;-1.00;99.90
13682;DHT22;6913;49.892;7.936;2023-02-28T03:41:31;-0.90;99.90
13682;DHT22;6913;49.892;7.936;2023-02-28T03:44:00;-1.00;99.90
13682;DHT22;6913;49.892;7.936;2023-02-28T03:46:33;-1.00;99.90
13682;DHT22;6913;49.892;7.936;2023-02-28T03:49:07;-0.90;99.90
13682;DHT22;6913;49.892;7.936;2023-02-28T03:51:38;-0.90;99.90
13682;DHT22;6913;49.892;7.936;2023-02-28T03:54:09;-0.90;99.90
13682;DHT22;6913;49.892;7.936;2023-02-28T03:56:40;-1.00;99.90
13682;DHT22;6913;49.892;7.936;2023-02-28T03:59:13;-1.00;99.90
13682;DHT22;6913;49.892;7.936;2023-02-28T04:01:43;-1.00;99.90
13682;DHT22;6913;49.892;7.936;2023-02-28T04:04:11;-1.00;99.90
13682;DHT22;6913;49.892;7.936;2023-02-28T04:06:40;-1.00;99.90
13682;DHT22;6913;49.892;7.936;2023-02-28T04:09:11;-1.00;99.90
13682;DHT22;6913;49.892;7.936;2023-02-28T04:11:39;-1.10;99.90
13682;DHT22;6913;49.892;7.936;2023-02-28T04:14:08;-1.10;99.90
13682;DHT22;6913;49.892;7.936;2023-02-28T04:16:37;-1.00;99.90
13682;DHT22;6913;49.892;7.936;2023-02-28T04:19:06;-1.10;99.90
13682;DHT22;6913;49.892;7.936;2023-02-28T04:21:35;-1.10;99.90
13682;DHT22;6913;49.892;7.936;2023-02-28T04:24:07;-1.10;99.90
13682;DHT22;6913;49.892;7.936;2023-02-28T04:26:40;-1.10;99.90
13682;DHT22;6913;49.892;7.936;2023-02-28T04:29:10;-1.20;99.90
13682;DHT22;6913;49.892;7.936;2023-02-28T04:31:37;-1.10;99.90
13682;DHT22;6913;49.892;7.936;2023-02-28T04:34:04;-1.20;99.90
13682;DHT22;6913;49.892;7.936;2023-02-28T04:36:31;-1.10;99.90
13682;DHT22;6913;49.892;7.936;2023-02-28T04:38:58;-1.10;99.90
13682;DHT22;6913;49.892;7.936;2023-02-28T04:41:26;-1.10;99.90
13682;DHT22;6913;49.892;7.936;2023-02-28T04:43:53;-1.10;99.90
13682;DHT22;6913;49.892;7.936;2023-02-28T04:46:21;-1.00;99.90
13682;DHT22;6913;49.892;7.936;2023-02-28T04:48:48;-1.00;99.90
13682;DHT22;6913;49.892;7.936;2023-02-28T04:51:17;-1.00;99.90
13682;DHT22;6913;49.892;7.936;2023-02-28T04:53:44;-1.00;99.90
13682;DHT22;6913;49.892;7.936;2023-02-28T04:56:13;-1.00;99.90
13682;DHT22;6913;49.892;7.936;2023-02-28T04:58:41;-1.00;99.90
13682;DHT22;6913;49.892;7.936;2023-02-28T05:01:18;-1.10;99.90
13682;DHT22;6913;49.892;7.936;2023-02-28T05:03:45;-1.00;99.90
13682;DHT22;6913;49.892;7.936;2023-02-28T05:06:13;-1.10;99.90
13682;DHT22;6913;49.892;7.936;2023-02-28T05:08:40;-1.00;99.90
13682;DHT22;6913;49.892;7.936;2023-02-28T05:11:13;-1.10;99.90
13682;DHT22;6913;49.892;7.936;2023-02-28T05:13:42;-1.10;99.90
13682;DHT22;6913;49.892;7.936;2023-02-28T05:16:09;-1.10;99.90
13682;DHT22;6913;49.892;7.936;2023-02-28T05:18:37;-1.10;99.90
13682;DHT22;6913;49.892;7.936;2023-02-28T05:21:05;-1.20;99.90
13682;DHT22;6913;49.892;7.936;2023-02-28T05:23:32;-1.20;99.90
13682;DHT22;6913;49.892;7.936;2023-02-28T05:25:59;-1.20;99.90
13682;DHT22;6913;49.892;7.936;2023-02-28T05:28:26;-1.30;99.90
13682;DHT22;6913;49.892;7.936;2023-02-28T05:30:54;-1.30;99.90
13682;DHT22;6913;49.892;7.936;2023-02-28T05:33:21;-1.30;99.90
13682;DHT22;6913;49.892;7.936;2023-02-28T05:35:48;-1.30;99.90
13682;DHT22;6913;49.892;7.936;2023-02-28T05:38:15;-1.30;99.90
13682;DHT22;6913;49.892;7.936;2023-02-28T05:40:42;-1.20;99.90
13682;DHT22;6913;49.892;7.936;2023-02-28T05:43:10;-1.30;99.90
13682;DHT22;6913;49.892;7.936;2023-02-28T05:45:38;-1.40;99.90
13682;DHT22;6913;49.892;7.936;2023-02-28T05:48:07;-1.40;99.90
13682;DHT22;6913;49.892;7.936;2023-02-28T05:50:34;-1.40;99.90
13682;DHT22;6913;49.892;7.936;2023-02-28T05:53:01;-1.40;99.90
13682;DHT22;6913;49.892;7.936;2023-02-28T05:55:28;-1.40;99.90
13682;DHT22;6913;49.892;7.936;2023-02-28T05:57:55;-1.50;99.90
13682;DHT22;6913;49.892;7.936;2023-02-28T06:00:23;-1.60;99.90
13682;DHT22;6913;49.892;7.936;2023-02-28T06:02:49;-1.60;99.90
13682;DHT22;6913;49.892;7.936;2023-02-28T06:05:20;-1.70;99.90
13682;DHT22;6913;49.892;7.936;2023-02-28T06:07:47;-1.90;99.90
13682;DHT22;6913;49.892;7.936;2023-02-28T06:10:14;-2.10;99.90
13682;DHT22;6913;49.892;7.936;2023-02-28T06:12:41;-1.40;99.90
13682;DHT22;6913;49.892;7.936;2023-02-28T06:15:11;-2.00;99.90
13682;DHT22;6913;49.892;7.936;2023-02-28T06:17:38;-1.90;99.90
13682;DHT22;6913;49.892;7.936;2023-02-28T06:20:06;-1.90;99.90
13682;DHT22;6913;49.892;7.936;2023-02-28T06:22:35;-1.80;99.90
13682;DHT22;6913;49.892;7.936;2023-02-28T06:25:02;-1.70;99.90
13682;DHT22;6913;49.892;7.936;2023-02-28T06:27:30;-1.70;99.90
13682;DHT22;6913;49.892;7.936;2023-02-28T06:29:57;-1.70;99.90
13682;DHT22;6913;49.892;7.936;2023-02-28T06:32:24;-1.70;99.90
13682;DHT22;6913;49.892;7.936;2023-02-28T06:34:51;-1.70;99.90
13682;DHT22;6913;49.892;7.936;2023-02-28T06:37:18;-1.70;99.90
13682;DHT22;6913;49.892;7.936;2023-02-28T06:39:46;-1.60;99.90
13682;DHT22;6913;49.892;7.936;2023-02-28T06:42:13;-1.50;99.90
13682;DHT22;6913;49.892;7.936;2023-02-28T06:44:40;-1.40;99.90
13682;DHT22;6913;49.892;7.936;2023-02-28T06:47:08;-1.30;99.90
13682;DHT22;6913;49.892;7.936;2023-02-28T06:49:36;-1.20;99.90
13682;DHT22;6913;49.892;7.936;2023-02-28T06:52:04;-1.20;99.90
13682;DHT22;6913;49.892;7.936;2023-02-28T06:54:31;-1.10;99.90
13682;DHT22;6913;49.892;7.936;2023-02-28T06:56:59;-0.90;99.90
13682;DHT22;6913;49.892;7.936;2023-02-28T06:59:26;-0.60;99.90
13682;DHT22;6913;49.892;7.936;2023-02-28T07:01:53;-0.40;99.90
13682;DHT22;6913;49.892;7.936;2023-02-28T07:04:20;-0.20;99.90
13682;DHT22;6913;49.892;7.936;2023-02-28T07:06:47;0.00;99.90
13682;DHT22;6913;49.892;7.936;2023-02-28T07:09:14;0.20;99.90
13682;DHT22;6913;49.892;7.936;2023-02-28T07:11:41;0.40;99.90
13682;DHT22;6913;49.892;7.936;2023-02-28T07:14:10;0.60;99.90
13682;DHT22;6913;49.892;7.936;2023-02-28T07:16:37;0.70;99.90
13682;DHT22;6913;49.892;7.936;2023-02-28T07:19:04;0.70;99.90
13682;DHT22;6913;49.892;7.936;2023-02-28T07:21:31;1.10;99.90
13682;DHT22;6913;49.892;7.936;2023-02-28T07:23:58;1.10;99.90
13682;DHT22;6913;49.892;7.936;2023-02-28T07:26:24;1.10;99.90
13682;DHT22;6913;49.892;7.936;2023-02-28T07:28:51;1.30;99.90
13682;DHT22;6913;49.892;7.936;2023-02-28T07:31:20;1.70;99.90
13682;DHT22;6913;49.892;7.936;2023-02-28T07:33:47;2.00;99.90
13682;DHT22;6913;49.892;7.936;2023-02-28T07:36:15;2.00;99.90
13682;DHT22;6913;49.892;7.936;2023-02-28T07:38:45;2.10;99.90
13682;DHT22;6913;49.892;7.936;2023-02-28T07:41:14;1.90;99.90
13682;DHT22;6913;49.892;7.936;2023-02-28T07:43:41;1.90;99.90
13682;DHT22;6913;49.892;7.936;2023-02-28T07:46:09;1.90;99.90
13682;DHT22;6913;49.892;7.936;2023-02-28T07:48:38;1.80;99.90
13682;DHT22;6913;49.892;7.936;2023-02-28T07:51:06;1.80;99.90
13682;DHT22;6913;49.892;7.936;2023-02-28T07:53:33;1.90;99.90
13682;DHT22;6913;49.892;7.936;2023-02-28T07:56:01;2.10;99.90
13682;DHT22;6913;49.892;7.936;2023-02-28T07:58:29;2.20;99.90
13682;DHT22;6913;49.892;7.936;2023-02-28T08:00:56;2.30;99.90
13682;DHT22;6913;49.892;7.936;2023-02-28T08:03:24;2.30;99.90
13682;DHT22;6913;49.892;7.936;2023-02-28T08:05:52;1.90;99.90
13682;DHT22;6913;49.892;7.936;2023-02-28T08:08:19;1.90;99.90
13682;DHT22;6913;49.892;7.936;2023-02-28T08:10:46;2.00;99.90
13682;DHT22;6913;49.892;7.936;2023-02-28T08:13:13;2.00;99.90
13682;DHT22;6913;49.892;7.936;2023-02-28T08:15:40;2.10;99.90
13682;DHT22;6913;49.892;7.936;2023-02-28T08:18:08;2.30;99.90
13682;DHT22;6913;49.892;7.936;2023-02-28T08:20:34;2.30;99.90
13682;DHT22;6913;49.892;7.936;2023-02-28T08:23:03;2.40;99.90
13682;DHT22;6913;49.892;7.936;2023-02-28T08:25:29;2.40;99.90
13682;DHT22;6913;49.892;7.936;2023-02-28T08:27:56;2.60;99.90
13682;DHT22;6913;49.892;7.936;2023-02-28T08:30:23;2.20;99.90
13682;DHT22;6913;49.892;7.936;2023-02-28T08:32:50;2.90;99.90
13682;DHT22;6913;49.892;7.936;2023-02-28T08:35:17;2.10;99.90
13682;DHT22;6913;49.892;7.936;2023-02-28T08:37:44;2.10;99.90
13682;DHT22;6913;49.892;7.936;2023-02-28T08:40:12;2.20;99.90
13682;DHT22;6913;49.892;7.936;2023-02-28T08:42:43;2.10;99.90
13682;DHT22;6913;49.892;7.936;2023-02-28T08:45:11;2.00;99.90
13682;DHT22;6913;49.892;7.936;2023-02-28T08:47:38;1.90;99.90
13682;DHT22;6913;49.892;7.936;2023-02-28T08:50:06;2.10;99.90
13682;DHT22;6913;49.892;7.936;2023-02-28T08:52:33;2.00;99.90
13682;DHT22;6913;49.892;7.936;2023-02-28T08:55:00;1.90;99.90
13682;DHT22;6913;49.892;7.936;2023-02-28T08:57:28;1.90;99.90
13682;DHT22;6913;49.892;7.936;2023-02-28T08:59:55;1.90;99.90
13682;DHT22;6913;49.892;7.936;2023-02-28T09:02:22;1.80;99.90
13682;DHT22;6913;49.892;7.936;2023-02-28T09:04:49;1.90;99.90
13682;DHT22;6913;49.892;7.936;2023-02-28T09:07:16;1.90;99.90
13682;DHT22;6913;49.892;7.936;2023-02-28T09:09:43;2.00;99.90
13682;DHT22;6913;49.892;7.936;2023-02-28T09:12:20;1.90;99.90
13682;DHT22;6913;49.892;7.936;2023-02-28T09:14:49;1.80;99.90
13682;DHT22;6913;49.892;7.936;2023-02-28T09:17:16;2.00;99.90
13682;DHT22;6913;49.892;7.936;2023-02-28T09:19:43;2.00;99.90
13682;DHT22;6913;49.892;7.936;2023-02-28T09:22:10;2.00;99.90
13682;DHT22;6913;49.892;7.936;2023-02-28T09:24:38;2.10;99.90
13682;DHT22;6913;49.892;7.936;2023-02-28T09:27:05;2.30;99.90
13682;DHT22;6913;49.892;7.936;2023-02-28T09:29:33;2.20;99.90
13682;DHT22;6913;49.892;7.936;2023-02-28T09:32:02;2.30;99.90
13682;DHT22;6913;49.892;7.936;2023-02-28T09:34:31;2.30;99.90
13682;DHT22;6913;49.892;7.936;2023-02-28T09:36:58;2.30;99.90
13682;DHT22;6913;49.892;7.936;2023-02-28T09:39:25;2.70;99.90
13682;DHT22;6913;49.892;7.936;2023-02-28T09:41:54;2.90;99.90
13682;DHT22;6913;49.892;7.936;2023-02-28T09:44:26;3.40;99.90
13682;DHT22;6913;49.892;7.936;2023-02-28T09:46:58;3.60;99.90
13682;DHT22;6913;49.892;7.936;2023-02-28T09:49:36;3.70;99.90
13682;DHT22;6913;49.892;7.936;2023-02-28T09:52:06;3.40;99.90
13682;DHT22;6913;49.892;7.936;2023-02-28T09:54:36;3.20;99.90
13682;DHT22;6913;49.892;7.936;2023-02-28T09:57:07;3.20;99.90
13682;DHT22;6913;49.892;7.936;2023-02-28T10:03:00;3.80;99.90
13682;DHT22;6913;49.892;7.936;2023-02-28T10:05:35;3.90;99.90
13682;DHT22;6913;49.892;7.936;2023-02-28T10:08:10;4.20;99.90
13682;DHT22;6913;49.892;7.936;2023-02-28T10:10:41;4.10;99.90
13682;DHT22;6913;49.892;7.936;2023-02-28T10:13:20;3.60;99.30
13682;DHT22;6913;49.892;7.936;2023-02-28T10:15:52;3.80;99.80
13682;DHT22;6913;49.892;7.936;2023-02-28T10:18:24;4.30;99.40
13682;DHT22;6913;49.892;7.936;2023-02-28T10:20:53;4.00;99.00
13682;DHT22;6913;49.892;7.936;2023-02-28T10:23:24;4.30;99.90
13682;DHT22;6913;49.892;7.936;2023-02-28T10:25:55;4.50;98.40
13682;DHT22;6913;49.892;7.936;2023-02-28T10:28:24;4.20;99.30
13682;DHT22;6913;49.892;7.936;2023-02-28T10:30:52;4.10;97.60
13682;DHT22;6913;49.892;7.936;2023-02-28T10:33:23;4.20;98.60
13682;DHT22;6913;49.892;7.936;2023-02-28T10:35:51;4.50;99.40
13682;DHT22;6913;49.892;7.936;2023-02-28T10:38:22;4.50;97.70
13682;DHT22;6913;49.892;7.936;2023-02-28T10:40:49;4.90;98.60
13682;DHT22;6913;49.892;7.936;2023-02-28T10:43:23;4.20;97.50
13682;DHT22;6913;49.892;7.936;2023-02-28T10:45:56;3.50;98.50
13682;DHT22;6913;49.892;7.936;2023-02-28T10:48:36;3.60;97.50
13682;DHT22;6913;49.892;7.936;2023-02-28T10:51:05;3.90;97.60
13682;DHT22;6913;49.892;7.936;2023-02-28T10:53:37;4.30;98.70
13682;DHT22;6913;49.892;7.936;2023-02-28T10:56:15;4.50;97.00
13682;DHT22;6913;49.892;7.936;2023-02-28T10:58:49;4.20;96.70
13682;DHT22;6913;49.892;7.936;2023-02-28T11:01:17;3.60;99.70
13682;DHT22;6913;49.892;7.936;2023-02-28T11:03:45;3.60;97.80
13682;DHT22;6913;49.892;7.936;2023-02-28T11:06:16;3.30;98.30
13682;DHT22;6913;49.892;7.936;2023-02-28T11:08:50;3.80;98.90
13682;DHT22;6913;49.892;7.936;2023-02-28T11:11:19;4.10;98.70
13682;DHT22;6913;49.892;7.936;2023-02-28T11:13:50;3.90;98.00
13682;DHT22;6913;49.892;7.936;2023-02-28T11:16:18;4.10;98.00
13682;DHT22;6913;49.892;7.936;2023-02-28T11:18:48;4.00;98.00
13682;DHT22;6913;49.892;7.936;2023-02-28T11:21:20;3.60;98.50
13682;DHT22;6913;49.892;7.936;2023-02-28T11:23:50;3.70;98.80
13682;DHT22;6913;49.892;7.936;2023-02-28T11:26:36;4.10;97.60
13682;DHT22;6913;49.892;7.936;2023-02-28T11:29:19;4.50;98.30
13682;DHT22;6913;49.892;7.936;2023-02-28T11:32:12;4.60;97.70
13682;DHT22;6913;49.892;7.936;2023-02-28T11:34:41;4.30;96.80
13682;DHT22;6913;49.892;7.936;2023-02-28T11:37:13;4.30;96.70
13682;DHT22;6913;49.892;7.936;2023-02-28T11:39:42;4.50;95.40
13682;DHT22;6913;49.892;7.936;2023-02-28T11:45:33;4.50;97.60
13682;DHT22;6913;49.892;7.936;2023-02-28T11:48:08;5.20;96.10
13682;DHT22;6913;49.892;7.936;2023-02-28T11:50:57;5.30;97.00
13682;DHT22;6913;49.892;7.936;2023-02-28T11:53:42;5.30;96.30
13682;DHT22;6913;49.892;7.936;2023-02-28T11:56:18;5.30;96.50
13682;DHT22;6913;49.892;7.936;2023-02-28T11:58:55;5.10;95.50
13682;DHT22;6913;49.892;7.936;2023-02-28T12:01:34;4.80;94.90
13682;DHT22;6913;49.892;7.936;2023-02-28T12:04:17;4.90;95.00
13682;DHT22;6913;49.892;7.936;2023-02-28T12:06:55;4.80;95.00
13682;DHT22;6913;49.892;7.936;2023-02-28T12:09:38;6.00;95.70
13682;DHT22;6913;49.892;7.936;2023-02-28T12:12:19;5.40;95.20
13682;DHT22;6913;49.892;7.936;2023-02-28T12:15:05;5.20;94.20
13682;DHT22;6913;49.892;7.936;2023-02-28T12:17:53;5.80;94.00
13682;DHT22;6913;49.892;7.936;2023-02-28T12:20:32;5.40;94.40
13682;DHT22;6913;49.892;7.936;2023-02-28T12:25:57;6.80;95.00
13682;DHT22;6913;49.892;7.936;2023-02-28T12:28:32;5.30;94.70
13682;DHT22;6913;49.892;7.936;2023-02-28T12:31:04;5.90;93.60
13682;DHT22;6913;49.892;7.936;2023-02-28T12:33:36;5.60;95.40
13682;DHT22;6913;49.892;7.936;2023-02-28T12:36:09;5.50;95.70
13682;DHT22;6913;49.892;7.936;2023-02-28T12:38:41;5.90;93.70
13682;DHT22;6913;49.892;7.936;2023-02-28T12:41:12;6.80;94.20
13682;DHT22;6913;49.892;7.936;2023-02-28T12:43:44;5.80;92.20
13682;DHT22;6913;49.892;7.936;2023-02-28T12:46:16;5.50;93.40
13682;DHT22;6913;49.892;7.936;2023-02-28T12:48:47;5.10;93.60
13682;DHT22;6913;49.892;7.936;2023-02-28T12:51:15;5.20;92.90
13682;DHT22;6913;49.892;7.936;2023-02-28T12:53:53;5.20;93.70
13682;DHT22;6913;49.892;7.936;2023-02-28T12:56:30;5.50;92.80
13682;DHT22;6913;49.892;7.936;2023-02-28T12:59:03;5.50;92.60
13682;DHT22;6913;49.892;7.936;2023-02-28T13:01:42;5.80;93.80
13682;DHT22;6913;49.892;7.936;2023-02-28T13:04:43;5.80;94.30
13682;DHT22;6913;49.892;7.936;2023-02-28T13:07:57;5.50;92.20
13682;DHT22;6913;49.892;7.936;2023-02-28T13:10:39;5.60;93.20
13682;DHT22;6913;49.892;7.936;2023-02-28T13:13:11;5.40;92.80
13682;DHT22;6913;49.892;7.936;2023-02-28T13:15:41;5.20;92.50
13682;DHT22;6913;49.892;7.936;2023-02-28T13:18:37;5.30;94.10
13682;DHT22;6913;49.892;7.936;2023-02-28T13:21:06;5.60;94.70
13682;DHT22;6913;49.892;7.936;2023-02-28T13:29:40;5.10;93.50
13682;DHT22;6913;49.892;7.936;2023-02-28T13:32:36;5.20;92.70
13682;DHT22;6913;49.892;7.936;2023-02-28T13:35:15;5.20;93.30
13682;DHT22;6913;49.892;7.936;2023-02-28T13:38:22;4.90;93.90
13682;DHT22;6913;49.892;7.936;2023-02-28T13:40:49;5.20;93.80
13682;DHT22;6913;49.892;7.936;2023-02-28T13:43:17;5.50;92.90
13682;DHT22;6913;49.892;7.936;2023-02-28T13:46:08;5.60;91.90
13682;DHT22;6913;49.892;7.936;2023-02-28T13:48:38;5.70;91.70
13682;DHT22;6913;49.892;7.936;2023-02-28T13:51:34;5.50;92.20
13682;DHT22;6913;49.892;7.936;2023-02-28T13:54:16;5.50;93.40
13682;DHT22;6913;49.892;7.936;2023-02-28T13:56:52;5.60;92.80
13682;DHT22;6913;49.892;7.936;2023-02-28T13:59:28;5.70;92.00
13682;DHT22;6913;49.892;7.936;2023-02-28T14:02:20;5.50;91.60
13682;DHT22;6913;49.892;7.936;2023-02-28T14:05:00;5.60;91.60
13682;DHT22;6913;49.892;7.936;2023-02-28T14:07:30;5.70;93.00
13682;DHT22;6913;49.892;7.936;2023-02-28T14:10:02;5.60;91.40
13682;DHT22;6913;49.892;7.936;2023-02-28T14:15:41;5.20;92.80
13682;DHT22;6913;49.892;7.936;2023-02-28T14:18:31;5.30;92.30
13682;DHT22;6913;49.892;7.936;2023-02-28T14:21:09;5.30;91.90
13682;DHT22;6913;49.892;7.936;2023-02-28T14:23:58;5.30;92.80
13682;DHT22;6913;49.892;7.936;2023-02-28T14:26:45;5.30;91.40
13682;DHT22;6913;49.892;7.936;2023-02-28T14:32:15;5.30;92.00
13682;DHT22;6913;49.892;7.936;2023-02-28T14:34:52;5.30;93.40
13682;DHT22;6913;49.892;7.936;2023-02-28T14:37:26;5.50;92.40
13682;DHT22;6913;49.892;7.936;2023-02-28T14:39:54;5.40;93.40
13682;DHT22;6913;49.892;7.936;2023-02-28T14:42:28;5.50;93.10
13682;DHT22;6913;49.892;7.936;2023-02-28T14:44:56;5.50;93.80
13682;DHT22;6913;49.892;7.936;2023-02-28T14:47:24;5.40;92.40
13682;DHT22;6913;49.892;7.936;2023-02-28T14:49:53;5.40;94.30
13682;DHT22;6913;49.892;7.936;2023-02-28T14:52:23;5.30;92.90
13682;DHT22;6913;49.892;7.936;2023-02-28T14:54:54;5.30;93.20
13682;DHT22;6913;49.892;7.936;2023-02-28T14:57:23;5.30;93.30
13682;DHT22;6913;49.892;7.936;2023-02-28T14:59:58;5.30;94.40
13682;DHT22;6913;49.892;7.936;2023-02-28T15:02:29;5.40;93.20
13682;DHT22;6913;49.892;7.936;2023-02-28T15:04:58;5.30;92.80
13682;DHT22;6913;49.892;7.936;2023-02-28T15:07:27;5.50;93.40
13682;DHT22;6913;49.892;7.936;2023-02-28T15:10:08;5.20;93.30
13682;DHT22;6913;49.892;7.936;2023-02-28T15:12:37;5.70;92.60
13682;DHT22;6913;49.892;7.936;2023-02-28T15:15:05;5.20;93.30
13682;DHT22;6913;49.892;7.936;2023-02-28T15:17:33;5.10;93.30
13682;DHT22;6913;49.892;7.936;2023-02-28T15:20:01;5.20;93.60
13682;DHT22;6913;49.892;7.936;2023-02-28T15:22:34;5.20;94.30
13682;DHT22;6913;49.892;7.936;2023-02-28T15:25:04;5.20;93.80
13682;DHT22;6913;49.892;7.936;2023-02-28T15:27:44;5.20;93.70
13682;DHT22;6913;49.892;7.936;2023-02-28T15:30:16;5.10;93.50
13682;DHT22;6913;49.892;7.936;2023-02-28T15:32:43;5.10;93.90
13682;DHT22;6913;49.892;7.936;2023-02-28T15:35:19;5.00;93.20
13682;DHT22;6913;49.892;7.936;2023-02-28T15:37:53;6.10;93.80
13682;DHT22;6913;49.892;7.936;2023-02-28T15:40:26;5.40;93.80
13682;DHT22;6913;49.892;7.936;2023-02-28T15:43:04;5.10;93.70
13682;DHT22;6913;49.892;7.936;2023-02-28T15:45:37;5.00;94.00
13682;DHT22;6913;49.892;7.936;2023-02-28T15:48:15;5.10;94.60
13682;DHT22;6913;49.892;7.936;2023-02-28T15:50:43;5.00;93.70
13682;DHT22;6913;49.892;7.936;2023-02-28T15:53:16;5.00;93.60
13682;DHT22;6913;49.892;7.936;2023-02-28T15:55:44;5.00;93.80
13682;DHT22;6913;49.892;7.936;2023-02-28T15:58:12;4.90;93.50
13682;DHT22;6913;49.892;7.936;2023-02-28T16:00:39;4.90;95.20
13682;DHT22;6913;49.892;7.936;2023-02-28T16:03:34;5.50;94.40
13682;DHT22;6913;49.892;7.936;2023-02-28T16:06:24;4.90;94.70
13682;DHT22;6913;49.892;7.936;2023-02-28T16:08:53;4.90;94.50
13682;DHT22;6913;49.892;7.936;2023-02-28T16:11:20;4.80;95.30
13682;DHT22;6913;49.892;7.936;2023-02-28T16:13:48;4.70;95.10
13682;DHT22;6913;49.892;7.936;2023-02-28T16:16:17;4.70;94.90
13682;DHT22;6913;49.892;7.936;2023-02-28T16:18:45;4.70;95.90
13682;DHT22;6913;49.892;7.936;2023-02-28T16:21:12;4.70;94.60
13682;DHT22;6913;49.892;7.936;2023-02-28T16:23:39;4.70;95.20
13682;DHT22;6913;49.892;7.936;2023-02-28T16:26:08;4.70;95.00
13682;DHT22;6913;49.892;7.936;2023-02-28T16:28:38;4.70;95.90
13682;DHT22;6913;49.892;7.936;2023-02-28T16:31:06;4.70;95.70
13682;DHT22;6913;49.892;7.936;2023-02-28T16:33:34;4.60;95.60
13682;DHT22;6913;49.892;7.936;2023-02-28T16:36:01;4.60;96.10
13682;DHT22;6913;49.892;7.936;2023-02-28T16:38:28;4.50;96.00
13682;DHT22;6913;49.892;7.936;2023-02-28T16:40:57;4.50;96.10
13682;DHT22;6913;49.892;7.936;2023-02-28T16:43:27;4.50;96.90
13682;DHT22;6913;49.892;7.936;2023-02-28T16:45:55;4.60;96.40
13682;DHT22;6913;49.892;7.936;2023-02-28T16:48:23;4.50;95.90
13682;DHT22;6913;49.892;7.936;2023-02-28T16:50:51;4.40;96.40